Time;durP1;ratioP1;P1;durP2;ratioP2;P2;SDS_P1;SDS_P2;PMS_P1;PMS_P2;Temp;Humidity;BMP_temperature;BMP_pressure;BME280_temperature;BME280_humidity;BME280_pressure;Samples;Min_cycle;Max_cycle;Signal;HPM_P1;HPM_P2
2023/08/05 00:07:36;;;;;;;3.50;1.17;;;22.60;36.10;;;;;;21004322;28;20131;-56
2023/08/05 00:17:37;;;;;;;5.40;1.48;;;22.50;36.70;;;;;;21003376;28;20049;-58
2023/08/05 00:27:38;;;;;;;5.63;1.60;;;22.30;37.10;;;;;;21002006;28;20045;-56
2023/08/05 00:37:39;;;;;;;6.10;1.77;;;22.20;37.50;;;;;;21002890;28;20450;-57
2023/08/05 00:47:41;;;;;;;2.72;1.50;;;22.20;37.90;;;;;;21001720;28;20469;-57
2023/08/05 00:57:42;;;;;;;2.33;1.60;;;21.90;38.60;;;;;;21000667;28;20090;-58
2023/08/05 01:07:44;;;;;;;4.80;1.70;;;21.90;39.10;;;;;;21000258;28;20056;-57
2023/08/05 01:17:45;;;;;;;6.15;1.60;;;21.80;39.50;;;;;;20999289;28;20056;-57
2023/08/05 01:27:46;;;;;;;6.13;1.60;;;21.60;40.00;;;;;;20997647;28;20395;-57
2023/08/05 01:37:47;;;;;;;9.68;1.80;;;21.60;40.10;;;;;;20997869;28;20092;-56
2023/08/05 01:47:47;;;;;;;2.90;1.40;;;21.40;40.30;;;;;;20996945;28;20041;-56
2023/08/05 01:57:48;;;;;;;4.88;1.55;;;21.40;40.30;;;;;;20996177;28;20040;-57
2023/08/05 02:07:49;;;;;;;3.15;1.42;;;21.20;40.80;;;;;;20994878;28;20098;-56
2023/08/05 02:17:50;;;;;;;2.45;1.35;;;21.20;41.00;;;;;;20995648;28;20044;-57
2023/08/05 02:27:50;;;;;;;3.08;1.70;;;21.00;41.30;;;;;;20995131;28;20059;-58
2023/08/05 02:37:51;;;;;;;4.95;1.80;;;20.80;41.60;;;;;;20994780;28;20135;-58
2023/08/05 02:47:52;;;;;;;1.98;1.40;;;20.70;41.80;;;;;;20994251;28;20048;-56
2023/08/05 02:57:53;;;;;;;4.18;1.77;;;20.70;41.60;;;;;;20993741;28;20048;-57
2023/08/05 03:07:54;;;;;;;3.97;1.48;;;20.70;41.10;;;;;;20991811;28;20101;-56
2023/08/05 03:17:55;;;;;;;3.17;1.50;;;20.60;41.20;;;;;;21007955;28;20040;-56
2023/08/05 03:27:56;;;;;;;3.35;1.60;;;20.50;41.50;;;;;;21007490;28;20055;-57
2023/08/05 03:37:57;;;;;;;4.25;1.50;;;20.40;41.50;;;;;;21005685;28;20052;-56
2023/08/05 03:47:57;;;;;;;4.13;1.70;;;20.40;41.50;;;;;;21006227;28;20498;-56
2023/08/05 03:57:58;;;;;;;6.70;2.80;;;20.20;42.00;;;;;;21004292;28;20037;-58
2023/08/05 04:07:59;;;;;;;2.22;1.52;;;20.20;41.90;;;;;;21003775;28;20055;-56
2023/08/05 04:18:00;;;;;;;3.28;1.50;;;20.00;42.10;;;;;;21004325;28;20041;-56
2023/08/05 04:28:01;;;;;;;3.60;1.67;;;20.10;42.10;;;;;;21003548;28;20078;-57
2023/08/05 04:38:02;;;;;;;2.67;1.40;;;20.00;42.10;;;;;;21001628;28;20048;-57
2023/08/05 04:48:04;;;;;;;3.05;1.70;;;20.00;42.20;;;;;;21002047;28;20051;-57
2023/08/05 04:58:05;;;;;;;5.20;1.80;;;20.00;42.30;;;;;;21001453;28;20140;-56
2023/08/05 05:08:06;;;;;;;3.05;1.60;;;19.90;42.60;;;;;;21000157;28;20048;-56
2023/08/05 05:18:07;;;;;;;4.00;1.45;;;19.90;42.60;;;;;;20999583;28;20127;-57
2023/08/05 05:28:07;;;;;;;4.47;1.70;;;19.80;43.00;;;;;;20997171;28;20459;-57
2023/08/05 05:38:08;;;;;;;4.05;1.63;;;19.70;43.30;;;;;;20997292;28;20509;-57
2023/08/05 05:48:09;;;;;;;3.85;1.75;;;19.70;43.40;;;;;;20997039;28;20342;-56
2023/08/05 05:58:09;;;;;;;3.40;1.83;;;19.80;43.00;;;;;;20996643;28;20075;-57
2023/08/05 06:08:10;;;;;;;4.32;1.73;;;19.80;43.00;;;;;;20994339;28;20052;-57
2023/08/05 06:18:11;;;;;;;4.13;1.70;;;19.80;43.00;;;;;;20995835;28;20049;-57
2023/08/05 06:28:12;;;;;;;5.60;1.60;;;19.90;42.90;;;;;;20995077;28;20084;-58
2023/08/05 06:38:12;;;;;;;7.18;1.85;;;20.00;42.70;;;;;;20992921;28;20040;-57
2023/08/05 06:48:13;;;;;;;2.72;1.50;;;20.10;42.30;;;;;;21004186;28;20500;-57
2023/08/05 06:58:14;;;;;;;2.85;1.50;;;20.50;41.70;;;;;;21010408;28;20452;-56
2023/08/05 07:08:15;;;;;;;3.75;1.52;;;21.20;39.70;;;;;;21010266;28;20137;-57
2023/08/05 07:18:16;;;;;;;3.08;1.55;;;21.60;39.30;;;;;;21007184;28;20044;-56
2023/08/05 07:28:17;;;;;;;3.78;1.70;;;21.80;38.80;;;;;;21006487;28;20118;-57
2023/08/05 07:38:20;;;;;;;4.68;1.83;;;22.20;38.00;;;;;;21006927;28;20528;-58
2023/08/05 07:48:21;;;;;;;8.07;2.40;;;22.70;37.20;;;;;;21006582;28;20151;-57
2023/08/05 07:58:22;;;;;;;4.53;1.50;;;22.90;37.00;;;;;;21004123;28;20406;-56
2023/08/05 08:08:22;;;;;;;3.70;1.90;;;23.10;35.90;;;;;;21004418;28;20551;-57
2023/08/05 08:18:23;;;;;;;3.58;1.80;;;23.10;36.60;;;;;;21003614;28;20052;-57
2023/08/05 08:28:24;;;;;;;4.53;1.60;;;23.40;36.20;;;;;;21003600;28;20485;-57
2023/08/05 08:38:25;;;;;;;6.32;2.10;;;23.50;35.90;;;;;;21000969;28;20102;-58
2023/08/05 08:48:28;;;;;;;5.03;2.35;;;23.60;35.80;;;;;;21001620;28;20048;-56
2023/08/05 08:58:28;;;;;;;;;;;23.60;35.30;;;;;;21001744;28;20405;-57
2023/08/05 09:08:29;;;;;;;4.37;1.60;;;23.70;35.30;;;;;;20999055;28;20004;-57
2023/08/05 09:18:30;;;;;;;5.28;2.05;;;24.20;34.60;;;;;;20999259;28;20285;-57
2023/08/05 09:28:31;;;;;;;4.97;1.80;;;24.40;34.10;;;;;;20997499;28;20055;-57
2023/08/05 09:38:32;;;;;;;3.58;2.00;;;24.70;33.80;;;;;;20996919;28;20410;-57
2023/08/05 09:48:43;;;;;;;5.85;1.80;;;24.60;33.80;;;;;;20996100;28;20079;-57
2023/08/05 09:58:44;;;;;;;3.33;1.70;;;25.00;33.20;;;;;;20995452;28;20120;-56
2023/08/05 10:08:46;;;;;;;4.53;1.63;;;25.10;33.00;;;;;;20993608;28;20483;-56
2023/08/05 10:18:48;;;;;;;3.38;1.88;;;25.40;32.20;;;;;;20994100;28;20048;-56
2023/08/05 10:28:49;;;;;;;3.00;1.63;;;25.50;31.80;;;;;;20993560;28;20208;-56
2023/08/05 10:38:50;;;;;;;4.25;1.70;;;25.60;32.20;;;;;;20994122;28;20493;-58
2023/08/05 10:48:51;;;;;;;3.40;1.70;;;25.90;31.40;;;;;;20993734;28;20067;-57
2023/08/05 10:58:52;;;;;;;6.87;1.90;;;26.10;31.00;;;;;;20992046;28;20080;-57
2023/08/05 11:09:00;;;;;;;3.63;2.53;;;26.50;30.00;;;;;;20993309;28;20114;-55
2023/08/05 11:19:00;;;;;;;3.65;2.13;;;26.60;29.40;;;;;;20992327;28;20049;-57
2023/08/05 11:29:01;;;;;;;5.70;2.47;;;26.90;28.80;;;;;;20993482;28;20059;-57
2023/08/05 11:39:02;;;;;;;3.90;1.93;;;27.10;27.40;;;;;;21007104;28;20082;-58
2023/08/05 11:49:11;;;;;;;2.93;2.00;;;27.40;26.20;;;;;;21006589;28;20146;-57
2023/08/05 11:59:13;;;;;;;3.00;2.05;;;27.70;25.10;;;;;;21006104;28;20045;-58
2023/08/05 12:09:14;;;;;;;5.15;2.10;;;27.90;24.60;;;;;;21004822;28;20123;-57
2023/08/05 12:19:15;;;;;;;4.37;1.87;;;28.20;25.10;;;;;;21003536;28;20075;-57
2023/08/05 12:29:15;;;;;;;5.33;3.73;;;28.40;24.30;;;;;;21002938;28;20056;-58
2023/08/05 12:39:16;;;;;;;15.50;11.20;;;28.80;23.40;;;;;;21002753;28;20287;-57
2023/08/05 12:49:17;;;;;;;;;;;29.00;23.50;;;;;;21002361;28;20112;-58
2023/08/05 12:59:17;;;;;;;4.45;2.25;;;29.00;23.60;;;;;;21001346;28;19974;-57
2023/08/05 13:09:18;;;;;;;;;;;29.20;23.70;;;;;;20999742;28;20129;-57
2023/08/05 13:19:20;;;;;;;5.80;2.07;;;29.50;22.90;;;;;;20999048;28;19921;-57
2023/08/05 13:29:21;;;;;;;5.45;2.13;;;29.70;22.60;;;;;;20997604;28;20056;-57
2023/08/05 13:39:25;;;;;;;4.75;2.72;;;30.00;22.40;;;;;;20997358;28;20123;-58
2023/08/05 13:49:25;;;;;;;7.03;2.95;;;30.30;21.80;;;;;;20996895;28;20040;-57
2023/08/05 13:59:26;;;;;;;5.13;2.15;;;30.50;21.50;;;;;;20995880;28;20128;-58
2023/08/05 14:09:27;;;;;;;6.82;2.40;;;30.60;21.40;;;;;;20995789;28;20472;-57
2023/08/05 14:19:27;;;;;;;4.63;1.85;;;30.60;21.40;;;;;;20994272;28;20118;-56
2023/08/05 14:29:28;;;;;;;4.07;2.35;;;30.90;21.90;;;;;;20993145;28;20044;-57
2023/08/05 14:39:29;;;;;;;6.03;2.38;;;31.20;20.70;;;;;;20994104;28;20059;-57
2023/08/05 14:49:29;;;;;;;4.50;2.17;;;31.20;20.50;;;;;;20992944;28;20040;-56
2023/08/05 14:59:30;;;;;;;6.18;3.10;;;31.50;20.70;;;;;;20993597;28;20041;-57
2023/08/05 15:09:31;;;;;;;4.72;2.35;;;31.70;20.70;;;;;;21002842;28;20132;-57
2023/08/05 15:19:32;;;;;;;6.88;2.20;;;31.60;21.00;;;;;;21009215;28;20517;-56
2023/08/05 15:29:32;;;;;;;3.85;2.40;;;31.50;21.00;;;;;;21007912;28;20473;-58
2023/08/05 15:39:33;;;;;;;7.53;2.60;;;31.70;21.40;;;;;;21007552;28;20048;-58
2023/08/05 15:49:34;;;;;;;5.72;2.42;;;31.80;21.30;;;;;;21005516;28;20064;-57
2023/08/05 15:59:35;;;;;;;6.93;3.40;;;31.80;21.70;;;;;;21006137;28;20040;-58
2023/08/05 16:09:36;;;;;;;5.80;2.28;;;32.10;21.30;;;;;;21005363;28;20052;-58
2023/08/05 16:19:37;;;;;;;4.63;2.20;;;32.10;21.10;;;;;;21002591;28;20041;-58
2023/08/05 16:29:37;;;;;;;4.53;2.30;;;32.40;21.00;;;;;;21001952;28;20057;-57
2023/08/05 16:39:38;;;;;;;5.97;2.25;;;32.30;21.20;;;;;;21002556;28;20549;-57
2023/08/05 16:49:39;;;;;;;5.13;2.60;;;32.50;20.90;;;;;;21001984;28;20103;-58
2023/08/05 16:59:39;;;;;;;6.93;2.85;;;32.30;21.40;;;;;;21000960;28;20041;-58
2023/08/05 17:09:40;;;;;;;4.78;2.63;;;32.30;21.60;;;;;;20999949;28;20052;-57
2023/08/05 17:19:41;;;;;;;6.27;2.57;;;32.20;21.40;;;;;;20999412;28;20099;-58
2023/08/05 17:29:42;;;;;;;5.78;3.15;;;32.20;21.20;;;;;;20997201;28;20626;-58
2023/08/05 17:39:43;;;;;;;4.25;2.17;;;32.10;21.60;;;;;;20996027;28;20395;-58
2023/08/05 17:49:43;;;;;;;5.50;2.63;;;32.10;21.80;;;;;;20995272;28;20044;-58
2023/08/05 17:59:44;;;;;;;5.72;2.40;;;32.00;21.70;;;;;;20994598;28;20140;-59
2023/08/05 18:09:45;;;;;;;5.93;3.20;;;32.10;21.50;;;;;;20994853;28;20513;-59
2023/08/05 18:19:46;;;;;;;6.05;3.00;;;32.00;21.50;;;;;;20993494;28;20036;-60
2023/08/05 18:29:48;;;;;;;5.10;3.03;;;31.90;21.80;;;;;;20994014;28;20636;-60
2023/08/05 18:39:49;;;;;;;12.68;5.05;;;31.80;21.90;;;;;;20993257;28;20064;-59
2023/08/05 18:49:50;;;;;;;11.15;5.10;;;31.60;21.90;;;;;;20994611;28;20044;-59
2023/08/05 18:59:50;;;;;;;7.28;3.25;;;31.60;21.90;;;;;;20994538;28;20129;-61
2023/08/05 19:09:51;;;;;;;5.95;2.83;;;31.50;22.10;;;;;;20994337;28;20194;-59
2023/08/05 19:19:52;;;;;;;8.65;3.10;;;31.40;22.10;;;;;;20993322;28;20401;-59
2023/08/05 19:29:53;;;;;;;6.55;3.22;;;31.20;22.50;;;;;;20991905;28;20088;-60
2023/08/05 19:39:55;;;;;;;7.15;3.50;;;30.90;22.60;;;;;;20992778;28;20432;-60
2023/08/05 19:49:56;;;;;;;8.98;3.20;;;30.90;22.60;;;;;;20990956;28;20045;-60
2023/08/05 19:59:56;;;;;;;8.63;3.35;;;30.70;22.60;;;;;;21006760;28;20044;-57
2023/08/05 20:09:57;;;;;;;11.80;8.13;;;30.40;22.90;;;;;;21006668;28;20128;-58
2023/08/05 20:19:58;;;;;;;9.05;3.75;;;30.30;23.10;;;;;;21006045;28;20129;-59
2023/08/05 20:29:59;;;;;;;9.68;5.35;;;30.00;23.50;;;;;;21003796;28;20131;-59
2023/08/05 20:39:59;;;;;;;8.23;4.03;;;29.90;23.40;;;;;;21004539;28;20084;-59
2023/08/05 20:50:00;;;;;;;9.18;3.47;;;29.90;23.70;;;;;;21002246;28;20040;-59
2023/08/05 21:00:02;;;;;;;10.32;4.25;;;29.60;24.10;;;;;;21001218;28;20087;-57
2023/08/05 21:10:03;;;;;;;9.85;5.90;;;29.50;24.20;;;;;;21001041;28;20053;-59
2023/08/05 21:20:05;;;;;;;23.67;17.98;;;29.40;24.50;;;;;;21001218;28;20094;-57
2023/08/05 21:30:06;;;;;;;11.60;5.07;;;29.10;25.20;;;;;;20999583;28;20048;-57
2023/08/05 21:40:07;;;;;;;11.88;5.25;;;28.90;25.60;;;;;;20999775;28;20045;-57
2023/08/05 21:50:08;;;;;;;11.40;6.57;;;29.00;25.70;;;;;;20998846;28;20389;-57
2023/08/05 22:00:12;;;;;;;11.27;6.10;;;28.70;26.10;;;;;;20997911;28;20086;-56
2023/08/05 22:10:13;;;;;;;10.35;5.85;;;28.70;26.90;;;;;;20996134;28;20053;-58
2023/08/05 22:20:14;;;;;;;;;;;28.40;27.60;;;;;;20993860;28;20603;-57
2023/08/05 22:30:15;;;;;;;20.87;13.50;;;28.40;28.20;;;;;;20994521;28;19942;-57
2023/08/05 22:40:16;;;;;;;10.18;5.68;;;28.10;28.80;;;;;;20995445;28;20044;-58
2023/08/05 22:50:16;;;;;;;13.10;5.23;;;27.90;29.10;;;;;;20995728;28;20047;-57
2023/08/05 23:00:17;;;;;;;9.38;4.78;;;27.80;29.20;;;;;;20995536;28;20048;-58
2023/08/05 23:10:18;;;;;;;16.20;5.17;;;27.70;29.40;;;;;;20994349;28;20076;-56
2023/08/05 23:20:19;;;;;;;19.77;8.40;;;27.60;29.40;;;;;;20994917;28;20041;-57
2023/08/05 23:30:19;;;;;;;14.83;8.53;;;27.40;30.20;;;;;;21001330;28;20122;-56
2023/08/05 23:40:20;;;;;;;12.47;6.80;;;27.30;30.60;;;;;;21009806;28;20040;-58
2023/08/05 23:50:21;;;;;;;10.60;5.63;;;27.20;30.60;;;;;;21008384;28;20050;-58
